sensor_id;sensor_type;location;lat;lon;timestamp;pressure;altitude;pressure_sealevel;temperature;humidity
45050;BME280;61798;48.048;-1.928;2023-07-22T00:01:42;101073.09;;;11.82;100.00
45050;BME280;61798;48.048;-1.928;2023-07-22T00:03:49;101047.00;;;11.54;100.00
45050;BME280;61798;48.048;-1.928;2023-07-22T00:06:10;101078.56;;;11.89;100.00
45050;BME280;61798;48.048;-1.928;2023-07-22T00:08:17;101059.63;;;11.76;100.00
45050;BME280;61798;48.048;-1.928;2023-07-22T00:10:24;101069.28;;;11.70;100.00
45050;BME280;61798;48.048;-1.928;2023-07-22T00:12:31;101063.38;;;11.59;100.00
45050;BME280;61798;48.048;-1.928;2023-07-22T00:14:40;101071.75;;;11.71;100.00
45050;BME280;61798;48.048;-1.928;2023-07-22T00:16:47;101053.91;;;11.63;100.00
45050;BME280;61798;48.048;-1.928;2023-07-22T00:18:55;101056.47;;;11.50;100.00
45050;BME280;61798;48.048;-1.928;2023-07-22T00:21:02;101028.16;;;11.32;100.00
45050;BME280;61798;48.048;-1.928;2023-07-22T00:23:08;101055.28;;;11.37;100.00
45050;BME280;61798;48.048;-1.928;2023-07-22T00:25:17;101040.50;;;11.11;100.00
45050;BME280;61798;48.048;-1.928;2023-07-22T00:27:24;101029.22;;;11.00;100.00
45050;BME280;61798;48.048;-1.928;2023-07-22T00:29:31;101064.56;;;11.04;100.00
45050;BME280;61798;48.048;-1.928;2023-07-22T00:31:39;101043.88;;;10.83;100.00
45050;BME280;61798;48.048;-1.928;2023-07-22T00:33:47;101047.94;;;10.78;100.00
45050;BME280;61798;48.048;-1.928;2023-07-22T00:35:54;101042.44;;;10.72;100.00
45050;BME280;61798;48.048;-1.928;2023-07-22T00:38:01;101038.38;;;10.76;100.00
45050;BME280;61798;48.048;-1.928;2023-07-22T00:40:09;101068.44;;;11.02;100.00
45050;BME280;61798;48.048;-1.928;2023-07-22T00:42:19;101060.19;;;11.03;100.00
45050;BME280;61798;48.048;-1.928;2023-07-22T00:44:27;101034.22;;;10.88;100.00
45050;BME280;61798;48.048;-1.928;2023-07-22T00:46:34;101057.91;;;11.00;100.00
45050;BME280;61798;48.048;-1.928;2023-07-22T00:48:42;101056.22;;;10.99;100.00
45050;BME280;61798;48.048;-1.928;2023-07-22T00:50:49;101034.97;;;10.97;100.00
45050;BME280;61798;48.048;-1.928;2023-07-22T00:52:57;101016.78;;;10.77;100.00
45050;BME280;61798;48.048;-1.928;2023-07-22T00:55:05;101023.59;;;10.80;100.00
45050;BME280;61798;48.048;-1.928;2023-07-22T00:57:12;101051.25;;;10.96;100.00
45050;BME280;61798;48.048;-1.928;2023-07-22T00:59:19;101037.84;;;10.96;100.00
45050;BME280;61798;48.048;-1.928;2023-07-22T01:01:27;101048.66;;;11.03;100.00
45050;BME280;61798;48.048;-1.928;2023-07-22T01:03:37;101053.19;;;11.02;100.00
45050;BME280;61798;48.048;-1.928;2023-07-22T01:05:43;101055.66;;;11.04;100.00
45050;BME280;61798;48.048;-1.928;2023-07-22T01:07:51;101054.59;;;10.98;100.00
45050;BME280;61798;48.048;-1.928;2023-07-22T01:09:58;101060.41;;;11.17;100.00
45050;BME280;61798;48.048;-1.928;2023-07-22T01:12:07;101060.56;;;11.30;100.00
45050;BME280;61798;48.048;-1.928;2023-07-22T01:14:15;101044.81;;;11.27;100.00
45050;BME280;61798;48.048;-1.928;2023-07-22T01:16:21;101054.53;;;11.28;100.00
45050;BME280;61798;48.048;-1.928;2023-07-22T01:18:27;101046.06;;;11.09;100.00
45050;BME280;61798;48.048;-1.928;2023-07-22T01:20:35;101053.81;;;11.04;100.00
45050;BME280;61798;48.048;-1.928;2023-07-22T01:22:54;101045.72;;;10.82;100.00
45050;BME280;61798;48.048;-1.928;2023-07-22T01:25:01;101047.63;;;10.73;100.00
45050;BME280;61798;48.048;-1.928;2023-07-22T01:27:09;101025.88;;;10.53;100.00
45050;BME280;61798;48.048;-1.928;2023-07-22T01:29:17;101051.25;;;10.65;100.00
45050;BME280;61798;48.048;-1.928;2023-07-22T01:31:24;101037.38;;;10.62;100.00
45050;BME280;61798;48.048;-1.928;2023-07-22T01:33:32;101022.63;;;10.42;100.00
45050;BME280;61798;48.048;-1.928;2023-07-22T01:35:40;101023.72;;;10.33;100.00
45050;BME280;61798;48.048;-1.928;2023-07-22T01:37:48;101019.16;;;10.57;100.00
45050;BME280;61798;48.048;-1.928;2023-07-22T01:39:55;101022.59;;;10.81;100.00
45050;BME280;61798;48.048;-1.928;2023-07-22T01:42:04;101036.34;;;11.08;100.00
45050;BME280;61798;48.048;-1.928;2023-07-22T01:44:11;101037.19;;;11.09;100.00
45050;BME280;61798;48.048;-1.928;2023-07-22T01:46:18;100994.94;;;10.96;100.00
45050;BME280;61798;48.048;-1.928;2023-07-22T01:48:25;101032.47;;;10.96;100.00
45050;BME280;61798;48.048;-1.928;2023-07-22T01:50:31;101038.22;;;10.93;100.00
45050;BME280;61798;48.048;-1.928;2023-07-22T01:52:39;101029.34;;;10.77;100.00
45050;BME280;61798;48.048;-1.928;2023-07-22T01:54:46;101049.94;;;10.92;100.00
45050;BME280;61798;48.048;-1.928;2023-07-22T01:56:53;101021.00;;;10.72;100.00
45050;BME280;61798;48.048;-1.928;2023-07-22T01:59:02;101050.78;;;10.92;100.00
45050;BME280;61798;48.048;-1.928;2023-07-22T02:01:09;101038.56;;;11.05;100.00
45050;BME280;61798;48.048;-1.928;2023-07-22T02:03:17;101018.34;;;11.02;100.00
45050;BME280;61798;48.048;-1.928;2023-07-22T02:05:24;101017.66;;;11.00;100.00
45050;BME280;61798;48.048;-1.928;2023-07-22T02:07:31;101026.66;;;10.92;100.00
45050;BME280;61798;48.048;-1.928;2023-07-22T02:09:38;101036.63;;;10.83;100.00
45050;BME280;61798;48.048;-1.928;2023-07-22T02:11:46;101039.13;;;10.70;100.00
45050;BME280;61798;48.048;-1.928;2023-07-22T02:13:53;101039.22;;;10.61;100.00
45050;BME280;61798;48.048;-1.928;2023-07-22T02:16:01;101033.38;;;10.57;100.00
45050;BME280;61798;48.048;-1.928;2023-07-22T02:18:08;101013.34;;;10.68;100.00
45050;BME280;61798;48.048;-1.928;2023-07-22T02:20:15;101027.50;;;10.77;100.00
45050;BME280;61798;48.048;-1.928;2023-07-22T02:22:23;101033.69;;;10.63;100.00
45050;BME280;61798;48.048;-1.928;2023-07-22T02:24:29;101017.00;;;10.52;100.00
45050;BME280;61798;48.048;-1.928;2023-07-22T02:26:36;101022.91;;;10.47;100.00
45050;BME280;61798;48.048;-1.928;2023-07-22T02:28:43;101035.41;;;10.55;100.00
45050;BME280;61798;48.048;-1.928;2023-07-22T02:30:52;101009.88;;;10.44;100.00
45050;BME280;61798;48.048;-1.928;2023-07-22T02:32:59;101033.47;;;10.64;100.00
45050;BME280;61798;48.048;-1.928;2023-07-22T02:35:07;101012.75;;;10.43;100.00
45050;BME280;61798;48.048;-1.928;2023-07-22T02:37:14;101001.19;;;10.42;100.00
45050;BME280;61798;48.048;-1.928;2023-07-22T02:39:21;101022.84;;;10.56;100.00
45050;BME280;61798;48.048;-1.928;2023-07-22T02:41:29;101035.94;;;10.51;100.00
45050;BME280;61798;48.048;-1.928;2023-07-22T02:43:36;101025.56;;;10.47;100.00
45050;BME280;61798;48.048;-1.928;2023-07-22T02:45:43;101024.41;;;10.50;100.00
45050;BME280;61798;48.048;-1.928;2023-07-22T02:47:51;101025.53;;;10.56;100.00
45050;BME280;61798;48.048;-1.928;2023-07-22T02:49:58;101019.63;;;10.76;100.00
45050;BME280;61798;48.048;-1.928;2023-07-22T02:52:06;101030.53;;;10.74;100.00
45050;BME280;61798;48.048;-1.928;2023-07-22T02:54:13;101004.53;;;10.60;100.00
45050;BME280;61798;48.048;-1.928;2023-07-22T02:56:20;101002.75;;;10.52;100.00
45050;BME280;61798;48.048;-1.928;2023-07-22T02:58:28;100999.94;;;10.68;100.00
45050;BME280;61798;48.048;-1.928;2023-07-22T03:00:35;101023.34;;;10.75;100.00
45050;BME280;61798;48.048;-1.928;2023-07-22T03:02:42;101017.84;;;10.83;100.00
45050;BME280;61798;48.048;-1.928;2023-07-22T03:04:50;101018.25;;;11.10;100.00
45050;BME280;61798;48.048;-1.928;2023-07-22T03:06:57;101004.53;;;11.05;100.00
45050;BME280;61798;48.048;-1.928;2023-07-22T03:09:04;101013.44;;;11.43;100.00
45050;BME280;61798;48.048;-1.928;2023-07-22T03:11:12;100999.91;;;11.14;100.00
45050;BME280;61798;48.048;-1.928;2023-07-22T03:13:19;101010.50;;;11.38;100.00
45050;BME280;61798;48.048;-1.928;2023-07-22T03:15:26;101015.06;;;11.22;100.00
45050;BME280;61798;48.048;-1.928;2023-07-22T03:17:34;101000.47;;;11.09;100.00
45050;BME280;61798;48.048;-1.928;2023-07-22T03:19:42;100996.06;;;10.86;100.00
45050;BME280;61798;48.048;-1.928;2023-07-22T03:21:48;100976.25;;;10.87;100.00
45050;BME280;61798;48.048;-1.928;2023-07-22T03:23:55;100996.03;;;11.02;100.00
45050;BME280;61798;48.048;-1.928;2023-07-22T03:26:02;101006.38;;;11.05;100.00
45050;BME280;61798;48.048;-1.928;2023-07-22T03:28:10;101000.84;;;11.06;100.00
45050;BME280;61798;48.048;-1.928;2023-07-22T03:30:18;100996.00;;;11.17;100.00
45050;BME280;61798;48.048;-1.928;2023-07-22T03:32:26;100993.78;;;11.20;100.00
45050;BME280;61798;48.048;-1.928;2023-07-22T03:34:33;100995.41;;;11.37;100.00
45050;BME280;61798;48.048;-1.928;2023-07-22T03:36:40;100998.69;;;11.17;100.00
45050;BME280;61798;48.048;-1.928;2023-07-22T03:38:47;100997.22;;;11.14;100.00
45050;BME280;61798;48.048;-1.928;2023-07-22T03:40:55;100989.09;;;11.07;100.00
45050;BME280;61798;48.048;-1.928;2023-07-22T03:43:01;100998.59;;;11.25;100.00
45050;BME280;61798;48.048;-1.928;2023-07-22T03:45:08;100979.13;;;11.01;100.00
45050;BME280;61798;48.048;-1.928;2023-07-22T03:47:16;100982.25;;;11.05;100.00
45050;BME280;61798;48.048;-1.928;2023-07-22T03:49:23;100999.53;;;11.17;100.00
45050;BME280;61798;48.048;-1.928;2023-07-22T03:51:31;101002.78;;;11.13;100.00
45050;BME280;61798;48.048;-1.928;2023-07-22T03:53:38;100997.56;;;11.26;100.00
45050;BME280;61798;48.048;-1.928;2023-07-22T03:55:44;101003.97;;;11.25;100.00
45050;BME280;61798;48.048;-1.928;2023-07-22T03:57:51;100999.81;;;11.07;100.00
45050;BME280;61798;48.048;-1.928;2023-07-22T03:59:59;100992.59;;;11.08;100.00
45050;BME280;61798;48.048;-1.928;2023-07-22T04:02:07;101008.41;;;11.18;100.00
45050;BME280;61798;48.048;-1.928;2023-07-22T04:04:14;100993.59;;;11.22;100.00
45050;BME280;61798;48.048;-1.928;2023-07-22T04:06:22;100956.75;;;10.94;100.00
45050;BME280;61798;48.048;-1.928;2023-07-22T04:08:29;100978.91;;;11.18;100.00
45050;BME280;61798;48.048;-1.928;2023-07-22T04:10:37;100986.63;;;11.28;100.00
45050;BME280;61798;48.048;-1.928;2023-07-22T04:12:45;100994.31;;;11.31;100.00
45050;BME280;61798;48.048;-1.928;2023-07-22T04:14:52;100993.59;;;11.22;100.00
45050;BME280;61798;48.048;-1.928;2023-07-22T04:16:59;100991.28;;;11.19;100.00
45050;BME280;61798;48.048;-1.928;2023-07-22T04:19:06;101007.53;;;11.32;100.00
45050;BME280;61798;48.048;-1.928;2023-07-22T04:21:13;101008.72;;;11.45;100.00
45050;BME280;61798;48.048;-1.928;2023-07-22T04:23:22;100998.31;;;11.20;100.00
45050;BME280;61798;48.048;-1.928;2023-07-22T04:25:29;101002.34;;;11.31;100.00
45050;BME280;61798;48.048;-1.928;2023-07-22T04:27:36;100999.03;;;11.29;100.00
45050;BME280;61798;48.048;-1.928;2023-07-22T04:29:44;101013.44;;;11.43;100.00
45050;BME280;61798;48.048;-1.928;2023-07-22T04:31:50;100996.47;;;11.20;100.00
45050;BME280;61798;48.048;-1.928;2023-07-22T04:33:57;101019.56;;;11.37;100.00
45050;BME280;61798;48.048;-1.928;2023-07-22T04:36:04;101007.94;;;11.29;100.00
45050;BME280;61798;48.048;-1.928;2023-07-22T04:38:11;101017.63;;;11.68;100.00
45050;BME280;61798;48.048;-1.928;2023-07-22T04:40:18;101017.94;;;11.58;100.00
45050;BME280;61798;48.048;-1.928;2023-07-22T04:42:28;100994.53;;;11.51;100.00
45050;BME280;61798;48.048;-1.928;2023-07-22T04:44:35;101010.38;;;11.68;100.00
45050;BME280;61798;48.048;-1.928;2023-07-22T04:46:43;100997.34;;;11.65;100.00
45050;BME280;61798;48.048;-1.928;2023-07-22T04:48:50;100997.63;;;11.70;100.00
45050;BME280;61798;48.048;-1.928;2023-07-22T04:50:57;101012.44;;;11.88;100.00
45050;BME280;61798;48.048;-1.928;2023-07-22T04:53:05;101004.56;;;11.87;100.00
45050;BME280;61798;48.048;-1.928;2023-07-22T04:55:11;101013.28;;;11.89;100.00
45050;BME280;61798;48.048;-1.928;2023-07-22T04:57:21;101014.41;;;12.01;100.00
45050;BME280;61798;48.048;-1.928;2023-07-22T04:59:28;101002.59;;;11.95;100.00
45050;BME280;61798;48.048;-1.928;2023-07-22T05:01:36;101007.69;;;11.90;100.00
45050;BME280;61798;48.048;-1.928;2023-07-22T05:03:44;101005.19;;;12.11;100.00
45050;BME280;61798;48.048;-1.928;2023-07-22T05:05:52;101004.25;;;11.97;100.00
45050;BME280;61798;48.048;-1.928;2023-07-22T05:07:59;101005.25;;;11.95;100.00
45050;BME280;61798;48.048;-1.928;2023-07-22T05:10:07;101009.63;;;11.97;100.00
45050;BME280;61798;48.048;-1.928;2023-07-22T05:12:19;101010.38;;;11.90;100.00
45050;BME280;61798;48.048;-1.928;2023-07-22T05:14:26;101005.91;;;11.76;100.00
45050;BME280;61798;48.048;-1.928;2023-07-22T05:16:33;101000.22;;;11.63;100.00
45050;BME280;61798;48.048;-1.928;2023-07-22T05:18:40;101027.00;;;11.79;100.00
45050;BME280;61798;48.048;-1.928;2023-07-22T05:20:48;101013.97;;;11.76;100.00
45050;BME280;61798;48.048;-1.928;2023-07-22T05:22:55;101009.00;;;11.72;100.00
45050;BME280;61798;48.048;-1.928;2023-07-22T05:25:02;101016.25;;;11.79;100.00
45050;BME280;61798;48.048;-1.928;2023-07-22T05:27:11;100993.25;;;11.91;100.00
45050;BME280;61798;48.048;-1.928;2023-07-22T05:29:18;100999.91;;;11.95;100.00
45050;BME280;61798;48.048;-1.928;2023-07-22T05:31:25;100989.38;;;11.94;100.00
45050;BME280;61798;48.048;-1.928;2023-07-22T05:33:33;100973.44;;;11.92;100.00
45050;BME280;61798;48.048;-1.928;2023-07-22T05:35:40;101003.09;;;12.06;100.00
45050;BME280;61798;48.048;-1.928;2023-07-22T05:37:46;100986.59;;;12.09;100.00
45050;BME280;61798;48.048;-1.928;2023-07-22T05:39:52;100995.81;;;12.22;100.00
45050;BME280;61798;48.048;-1.928;2023-07-22T05:41:58;100999.38;;;12.29;100.00
45050;BME280;61798;48.048;-1.928;2023-07-22T05:44:04;100995.91;;;12.35;100.00
45050;BME280;61798;48.048;-1.928;2023-07-22T05:46:10;100977.03;;;12.29;100.00
45050;BME280;61798;48.048;-1.928;2023-07-22T05:48:16;100988.09;;;12.41;100.00
45050;BME280;61798;48.048;-1.928;2023-07-22T05:50:22;101001.59;;;12.54;100.00
45050;BME280;61798;48.048;-1.928;2023-07-22T05:52:28;100977.50;;;12.39;100.00
45050;BME280;61798;48.048;-1.928;2023-07-22T05:54:35;100990.41;;;12.51;100.00
45050;BME280;61798;48.048;-1.928;2023-07-22T05:56:42;100998.53;;;12.57;100.00
45050;BME280;61798;48.048;-1.928;2023-07-22T05:58:50;100998.41;;;12.73;100.00
45050;BME280;61798;48.048;-1.928;2023-07-22T06:00:58;100984.53;;;12.69;100.00
45050;BME280;61798;48.048;-1.928;2023-07-22T06:03:04;100982.47;;;12.78;100.00
45050;BME280;61798;48.048;-1.928;2023-07-22T06:05:10;100989.63;;;12.99;100.00
45050;BME280;61798;48.048;-1.928;2023-07-22T06:07:16;100981.31;;;12.94;100.00
45050;BME280;61798;48.048;-1.928;2023-07-22T06:09:22;100989.78;;;12.91;100.00
45050;BME280;61798;48.048;-1.928;2023-07-22T06:11:28;100982.97;;;12.88;100.00
45050;BME280;61798;48.048;-1.928;2023-07-22T06:13:34;100993.56;;;13.04;100.00
45050;BME280;61798;48.048;-1.928;2023-07-22T06:15:40;100992.16;;;13.08;100.00
45050;BME280;61798;48.048;-1.928;2023-07-22T06:17:46;100979.72;;;13.07;100.00
45050;BME280;61798;48.048;-1.928;2023-07-22T06:19:52;100984.72;;;13.17;100.00
45050;BME280;61798;48.048;-1.928;2023-07-22T06:21:58;100978.53;;;13.30;100.00
45050;BME280;61798;48.048;-1.928;2023-07-22T06:24:04;100988.91;;;13.33;100.00
45050;BME280;61798;48.048;-1.928;2023-07-22T06:26:10;100975.44;;;13.26;100.00
45050;BME280;61798;48.048;-1.928;2023-07-22T06:28:16;100976.31;;;13.40;100.00
45050;BME280;61798;48.048;-1.928;2023-07-22T06:30:22;100972.78;;;13.33;100.00
45050;BME280;61798;48.048;-1.928;2023-07-22T06:32:29;100968.25;;;13.47;100.00
45050;BME280;61798;48.048;-1.928;2023-07-22T06:34:42;100966.34;;;13.34;100.00
45050;BME280;61798;48.048;-1.928;2023-07-22T06:37:04;100968.00;;;13.35;100.00
45050;BME280;61798;48.048;-1.928;2023-07-22T06:39:13;100976.91;;;13.42;100.00
45050;BME280;61798;48.048;-1.928;2023-07-22T06:41:20;100966.97;;;13.36;100.00
45050;BME280;61798;48.048;-1.928;2023-07-22T06:43:31;100969.25;;;13.39;100.00
45050;BME280;61798;48.048;-1.928;2023-07-22T06:45:43;100957.47;;;13.40;100.00
45050;BME280;61798;48.048;-1.928;2023-07-22T06:48:04;100986.47;;;13.59;100.00
45050;BME280;61798;48.048;-1.928;2023-07-22T06:50:11;100984.88;;;13.64;100.00
45050;BME280;61798;48.048;-1.928;2023-07-22T06:52:18;100975.34;;;13.69;100.00
45050;BME280;61798;48.048;-1.928;2023-07-22T06:54:25;100957.53;;;13.68;100.00
45050;BME280;61798;48.048;-1.928;2023-07-22T06:56:32;100965.81;;;13.80;100.00
45050;BME280;61798;48.048;-1.928;2023-07-22T06:58:39;100974.94;;;13.85;100.00
45050;BME280;61798;48.048;-1.928;2023-07-22T07:00:47;100974.50;;;14.02;100.00
45050;BME280;61798;48.048;-1.928;2023-07-22T07:02:54;100985.09;;;14.24;100.00
45050;BME280;61798;48.048;-1.928;2023-07-22T07:05:02;100974.09;;;14.33;100.00
45050;BME280;61798;48.048;-1.928;2023-07-22T07:07:12;100967.03;;;14.32;100.00
45050;BME280;61798;48.048;-1.928;2023-07-22T07:09:19;100962.69;;;14.24;100.00
45050;BME280;61798;48.048;-1.928;2023-07-22T07:11:28;100968.47;;;14.34;100.00
45050;BME280;61798;48.048;-1.928;2023-07-22T07:13:38;100941.72;;;14.26;100.00
45050;BME280;61798;48.048;-1.928;2023-07-22T07:15:48;100968.06;;;14.44;100.00
45050;BME280;61798;48.048;-1.928;2023-07-22T07:17:55;100967.41;;;14.42;100.00
45050;BME280;61798;48.048;-1.928;2023-07-22T07:20:03;100947.13;;;14.26;100.00
45050;BME280;61798;48.048;-1.928;2023-07-22T07:22:11;100967.56;;;14.61;100.00
45050;BME280;61798;48.048;-1.928;2023-07-22T07:24:18;100952.38;;;14.80;100.00
45050;BME280;61798;48.048;-1.928;2023-07-22T07:26:25;100965.75;;;15.15;100.00
45050;BME280;61798;48.048;-1.928;2023-07-22T07:28:32;100965.31;;;15.50;100.00
45050;BME280;61798;48.048;-1.928;2023-07-22T07:30:39;100956.41;;;16.01;100.00
45050;BME280;61798;48.048;-1.928;2023-07-22T07:32:46;100920.94;;;15.65;100.00
45050;BME280;61798;48.048;-1.928;2023-07-22T07:34:52;100928.06;;;15.59;100.00
45050;BME280;61798;48.048;-1.928;2023-07-22T07:37:00;100938.44;;;15.62;100.00
45050;BME280;61798;48.048;-1.928;2023-07-22T07:39:08;100933.41;;;15.66;100.00
45050;BME280;61798;48.048;-1.928;2023-07-22T07:41:15;100935.91;;;15.68;100.00
45050;BME280;61798;48.048;-1.928;2023-07-22T07:43:22;100923.78;;;15.51;100.00
45050;BME280;61798;48.048;-1.928;2023-07-22T07:45:30;100942.41;;;15.60;100.00
45050;BME280;61798;48.048;-1.928;2023-07-22T07:47:40;100900.00;;;15.35;100.00
45050;BME280;61798;48.048;-1.928;2023-07-22T07:49:47;100943.06;;;15.55;100.00
45050;BME280;61798;48.048;-1.928;2023-07-22T07:51:54;100925.00;;;15.49;100.00
45050;BME280;61798;48.048;-1.928;2023-07-22T07:54:02;100901.03;;;15.33;100.00
45050;BME280;61798;48.048;-1.928;2023-07-22T07:56:11;100901.28;;;15.32;100.00
45050;BME280;61798;48.048;-1.928;2023-07-22T07:58:18;100907.38;;;15.46;100.00
45050;BME280;61798;48.048;-1.928;2023-07-22T08:00:26;100928.34;;;15.77;100.00
45050;BME280;61798;48.048;-1.928;2023-07-22T08:02:33;100931.09;;;15.95;100.00
45050;BME280;61798;48.048;-1.928;2023-07-22T08:04:39;100931.44;;;16.25;100.00
45050;BME280;61798;48.048;-1.928;2023-07-22T08:06:45;100906.06;;;16.26;100.00
45050;BME280;61798;48.048;-1.928;2023-07-22T08:08:51;100938.00;;;16.55;100.00
45050;BME280;61798;48.048;-1.928;2023-07-22T08:11:01;100942.69;;;16.47;100.00
45050;BME280;61798;48.048;-1.928;2023-07-22T08:13:07;100879.03;;;16.26;100.00
45050;BME280;61798;48.048;-1.928;2023-07-22T08:15:13;100891.66;;;16.32;100.00
45050;BME280;61798;48.048;-1.928;2023-07-22T08:17:19;100926.19;;;16.49;100.00
45050;BME280;61798;48.048;-1.928;2023-07-22T08:19:25;100925.63;;;16.47;100.00
45050;BME280;61798;48.048;-1.928;2023-07-22T08:21:31;100927.41;;;16.53;100.00
45050;BME280;61798;48.048;-1.928;2023-07-22T08:23:37;100934.09;;;16.69;100.00
45050;BME280;61798;48.048;-1.928;2023-07-22T08:25:43;100903.31;;;16.52;100.00
45050;BME280;61798;48.048;-1.928;2023-07-22T08:27:49;100891.69;;;16.82;100.00
45050;BME280;61798;48.048;-1.928;2023-07-22T08:29:55;100924.41;;;17.11;100.00
45050;BME280;61798;48.048;-1.928;2023-07-22T08:32:01;100896.13;;;17.50;100.00
45050;BME280;61798;48.048;-1.928;2023-07-22T08:34:08;100875.03;;;17.76;100.00
45050;BME280;61798;48.048;-1.928;2023-07-22T08:36:14;100895.53;;;17.60;100.00
45050;BME280;61798;48.048;-1.928;2023-07-22T08:38:20;100912.06;;;17.71;100.00
45050;BME280;61798;48.048;-1.928;2023-07-22T08:40:25;100892.59;;;17.74;100.00
45050;BME280;61798;48.048;-1.928;2023-07-22T08:42:32;100886.84;;;17.82;100.00
45050;BME280;61798;48.048;-1.928;2023-07-22T08:44:43;100913.69;;;18.20;100.00
45050;BME280;61798;48.048;-1.928;2023-07-22T08:46:49;100912.72;;;18.51;100.00
45050;BME280;61798;48.048;-1.928;2023-07-22T08:49:00;100903.91;;;18.19;100.00
45050;BME280;61798;48.048;-1.928;2023-07-22T08:51:10;100915.69;;;17.76;100.00
45050;BME280;61798;48.048;-1.928;2023-07-22T08:53:18;100888.13;;;17.68;100.00
45050;BME280;61798;48.048;-1.928;2023-07-22T08:55:27;100873.13;;;17.29;100.00
45050;BME280;61798;48.048;-1.928;2023-07-22T08:57:35;100913.66;;;17.36;100.00
45050;BME280;61798;48.048;-1.928;2023-07-22T08:59:41;100904.56;;;17.30;100.00
45050;BME280;61798;48.048;-1.928;2023-07-22T09:01:49;100894.25;;;17.20;100.00
45050;BME280;61798;48.048;-1.928;2023-07-22T09:03:55;100909.22;;;17.65;100.00
45050;BME280;61798;48.048;-1.928;2023-07-22T09:06:04;100899.09;;;17.73;100.00
45050;BME280;61798;48.048;-1.928;2023-07-22T09:08:10;100886.84;;;17.94;100.00
45050;BME280;61798;48.048;-1.928;2023-07-22T09:10:17;100878.19;;;18.22;100.00
45050;BME280;61798;48.048;-1.928;2023-07-22T09:12:24;100867.19;;;18.41;100.00
45050;BME280;61798;48.048;-1.928;2023-07-22T09:14:30;100893.69;;;18.63;100.00
45050;BME280;61798;48.048;-1.928;2023-07-22T09:16:37;100885.22;;;18.59;100.00
45050;BME280;61798;48.048;-1.928;2023-07-22T09:18:43;100874.34;;;18.59;100.00
45050;BME280;61798;48.048;-1.928;2023-07-22T09:20:49;100879.75;;;18.71;100.00
45050;BME280;61798;48.048;-1.928;2023-07-22T09:22:56;100877.72;;;18.37;100.00
45050;BME280;61798;48.048;-1.928;2023-07-22T09:25:25;100857.38;;;18.52;100.00
45050;BME280;61798;48.048;-1.928;2023-07-22T09:27:34;100866.66;;;18.56;100.00
45050;BME280;61798;48.048;-1.928;2023-07-22T09:29:56;100872.34;;;18.54;100.00
45050;BME280;61798;48.048;-1.928;2023-07-22T09:32:36;100854.28;;;19.07;100.00
45050;BME280;61798;48.048;-1.928;2023-07-22T09:35:00;100838.56;;;19.09;100.00
45050;BME280;61798;48.048;-1.928;2023-07-22T09:37:09;100839.00;;;19.18;100.00
45050;BME280;61798;48.048;-1.928;2023-07-22T09:39:15;100832.81;;;19.40;100.00
45050;BME280;61798;48.048;-1.928;2023-07-22T09:41:21;100834.25;;;19.25;100.00
45050;BME280;61798;48.048;-1.928;2023-07-22T09:43:37;100833.66;;;19.40;100.00
45050;BME280;61798;48.048;-1.928;2023-07-22T09:45:47;100858.94;;;19.41;100.00
45050;BME280;61798;48.048;-1.928;2023-07-22T09:47:54;100780.88;;;19.01;100.00
45050;BME280;61798;48.048;-1.928;2023-07-22T09:50:01;100817.59;;;19.79;100.00
45050;BME280;61798;48.048;-1.928;2023-07-22T09:52:09;100843.56;;;19.86;100.00
45050;BME280;61798;48.048;-1.928;2023-07-22T09:54:19;100794.88;;;19.10;100.00
45050;BME280;61798;48.048;-1.928;2023-07-22T09:56:25;100816.22;;;18.72;100.00
45050;BME280;61798;48.048;-1.928;2023-07-22T09:58:32;100857.38;;;18.81;100.00
45050;BME280;61798;48.048;-1.928;2023-07-22T10:00:39;100843.00;;;18.51;100.00
45050;BME280;61798;48.048;-1.928;2023-07-22T10:02:48;100849.44;;;18.62;100.00
45050;BME280;61798;48.048;-1.928;2023-07-22T10:04:58;100781.75;;;18.26;100.00
45050;BME280;61798;48.048;-1.928;2023-07-22T10:07:07;100839.47;;;18.51;100.00
45050;BME280;61798;48.048;-1.928;2023-07-22T10:09:15;100795.50;;;18.36;100.00
45050;BME280;61798;48.048;-1.928;2023-07-22T10:11:23;100838.59;;;18.62;100.00
45050;BME280;61798;48.048;-1.928;2023-07-22T10:13:35;100847.06;;;18.66;100.00
45050;BME280;61798;48.048;-1.928;2023-07-22T10:15:45;100780.53;;;18.34;100.00
45050;BME280;61798;48.048;-1.928;2023-07-22T10:17:53;100842.81;;;18.87;100.00
45050;BME280;61798;48.048;-1.928;2023-07-22T10:20:01;100817.00;;;19.19;100.00
45050;BME280;61798;48.048;-1.928;2023-07-22T10:22:11;100800.78;;;18.90;100.00
45050;BME280;61798;48.048;-1.928;2023-07-22T10:24:20;100834.84;;;19.15;100.00
45050;BME280;61798;48.048;-1.928;2023-07-22T10:26:28;100810.63;;;19.26;100.00
45050;BME280;61798;48.048;-1.928;2023-07-22T10:28:35;100808.94;;;19.07;100.00
45050;BME280;61798;48.048;-1.928;2023-07-22T10:30:42;100792.72;;;19.12;100.00
45050;BME280;61798;48.048;-1.928;2023-07-22T10:32:51;100809.19;;;19.23;100.00
45050;BME280;61798;48.048;-1.928;2023-07-22T10:34:57;100809.44;;;19.21;100.00
45050;BME280;61798;48.048;-1.928;2023-07-22T10:37:09;100833.78;;;19.16;100.00
45050;BME280;61798;48.048;-1.928;2023-07-22T10:39:29;100768.94;;;18.85;100.00
45050;BME280;61798;48.048;-1.928;2023-07-22T10:41:59;100826.56;;;19.39;100.00
45050;BME280;61798;48.048;-1.928;2023-07-22T10:44:09;100800.16;;;19.74;100.00
45050;BME280;61798;48.048;-1.928;2023-07-22T10:46:33;100761.28;;;19.17;100.00
45050;BME280;61798;48.048;-1.928;2023-07-22T10:48:41;100815.03;;;19.49;100.00
45050;BME280;61798;48.048;-1.928;2023-07-22T10:50:58;100792.50;;;19.71;100.00
45050;BME280;61798;48.048;-1.928;2023-07-22T10:53:09;100757.78;;;19.56;100.00